Time;durP1;ratioP1;P1;durP2;ratioP2;P2;SDS_P1;SDS_P2;PMS_P1;PMS_P2;Temp;Humidity;BMP_temperature;BMP_pressure;BME280_temperature;BME280_humidity;BME280_pressure;Samples;Min_cycle;Max_cycle;Signal;HPM_P1;HPM_P2
2023/04/21 00:05:43;;;;;;;23.93;16.07;;;10.30;99.20;;;;;;20844757;28;20211;-69
2023/04/21 00:15:45;;;;;;;26.27;16.73;;;10.40;99.50;;;;;;20843399;28;20331;-72
2023/04/21 00:25:47;;;;;;;23.13;16.13;;;10.50;99.50;;;;;;20843190;28;20248;-70
2023/04/21 00:35:49;;;;;;;25.73;17.70;;;;;;;;;;20842069;28;20237;-69
2023/04/21 00:45:51;;;;;;;23.77;16.80;;;10.50;99.80;;;;;;20841201;28;20558;-70
2023/04/21 00:55:52;;;;;;;21.73;15.07;;;10.50;99.90;;;;;;20840786;28;20289;-70
2023/04/21 01:05:55;;;;;;;20.87;14.50;;;10.40;99.80;;;;;;20839445;28;20202;-72
2023/04/21 01:15:56;;;;;;;23.27;15.70;;;10.20;99.70;;;;;;20838933;28;20271;-73
2023/04/21 01:25:58;;;;;;;22.10;15.77;;;10.20;99.80;;;;;;20853973;28;20200;-74
2023/04/21 01:36:00;;;;;;;22.30;15.03;;;10.20;99.90;;;;;;20837487;28;20240;-74
2023/04/21 01:46:03;;;;;;;22.53;15.90;;;10.20;99.90;;;;;;20836588;28;20209;-74
2023/04/21 01:56:05;;;;;;;25.63;16.70;;;10.20;99.90;;;;;;20836208;28;20238;-72
2023/04/21 02:06:07;;;;;;;22.43;15.80;;;10.20;99.90;;;;;;20835164;28;20209;-73
2023/04/21 02:16:09;;;;;;;23.37;16.47;;;10.20;99.90;;;;;;20833309;28;20251;-75
2023/04/21 02:26:15;;;;;;;23.87;16.13;;;10.10;99.90;;;;;;20833924;28;20214;-70
2023/04/21 02:36:16;;;;;;;27.37;17.33;;;10.20;99.90;;;;;;20832767;28;20232;-75
2023/04/21 02:46:18;;;;;;;23.53;16.90;;;10.30;99.90;;;;;;20832317;28;20496;-72
2023/04/21 02:56:20;;;;;;;24.67;16.70;;;10.30;99.90;;;;;;20831836;28;20243;-71
2023/04/21 03:06:21;;;;;;;25.67;17.53;;;10.40;99.90;;;;;;20831014;28;20256;-75
2023/04/21 03:16:23;;;;;;;24.97;17.63;;;10.30;99.90;;;;;;20830196;28;20302;-74
2023/04/21 03:26:25;;;;;;;25.27;16.90;;;10.40;99.90;;;;;;20829780;28;20209;-73
2023/04/21 03:36:27;;;;;;;27.13;18.10;;;10.40;99.90;;;;;;20844691;28;20706;-76
2023/04/21 03:46:29;;;;;;;26.73;18.70;;;10.30;99.90;;;;;;20828932;28;20264;-70
2023/04/21 03:56:30;;;;;;;27.07;17.83;;;10.40;99.90;;;;;;20828952;28;20304;-69
2023/04/21 04:06:32;;;;;;;28.40;17.97;;;10.30;99.90;;;;;;20828396;28;20205;-69
2023/04/21 04:16:34;;;;;;;28.67;18.87;;;10.20;99.90;;;;;;20827162;28;20257;-70
2023/04/21 04:26:39;;;;;;;30.10;17.80;;;10.20;99.90;;;;;;20825442;28;20634;-68
2023/04/21 04:36:44;;;;;;;26.87;18.43;;;10.30;99.90;;;;;;20826855;28;20255;-68
2023/04/21 04:46:45;;;;;;;28.33;18.97;;;10.20;99.90;;;;;;20839803;28;20207;-69
2023/04/21 04:56:47;;;;;;;40.17;25.63;;;10.30;99.90;;;;;;20838793;28;20241;-71
2023/04/21 05:06:49;;;;;;;27.60;18.93;;;10.50;99.90;;;;;;20837565;28;20205;-74
2023/04/21 05:16:51;;;;;;;28.63;18.03;;;;;;;;;;20837801;28;20274;-74
2023/04/21 05:26:53;;;;;;;26.33;18.47;;;10.70;99.90;;;;;;20837131;28;20209;-70
2023/04/21 05:36:55;;;;;;;27.57;18.60;;;10.70;99.90;;;;;;20875923;28;20243;-70
2023/04/21 05:46:57;;;;;;;26.17;17.77;;;10.60;99.90;;;;;;20917207;28;20272;-72
2023/04/21 05:59:12;;;;;;;41.40;22.53;;;10.80;99.90;;;;;;21232304;27;20286;-74
2023/04/21 06:09:14;;;;;;;43.47;29.50;;;11.00;99.90;;;;;;21147188;28;20611;-72
2023/04/21 06:19:16;;;;;;;28.63;18.53;;;11.10;99.90;;;;;;21148888;28;20217;-73
2023/04/21 06:29:18;;;;;;;27.73;19.10;;;11.20;99.90;;;;;;21148847;28;20339;-72
2023/04/21 06:39:20;;;;;;;31.10;19.83;;;11.50;99.90;;;;;;21147238;28;20267;-71
2023/04/21 06:49:22;;;;;;;29.57;19.27;;;11.70;99.90;;;;;;21143228;28;20546;-73
2023/04/21 06:59:24;;;;;;;27.80;18.70;;;12.00;99.90;;;;;;21145818;28;20214;-71
2023/04/21 07:09:27;;;;;;;27.03;18.97;;;12.10;99.90;;;;;;21096504;28;20205;-73
2023/04/21 07:19:29;;;;;;;30.83;19.23;;;12.20;99.90;;;;;;21088492;28;20711;-75
2023/04/21 07:29:30;;;;;;;28.00;18.53;;;12.40;99.90;;;;;;21087596;28;20210;-71
2023/04/21 07:39:32;;;;;;;29.00;18.60;;;12.70;99.70;;;;;;21087574;28;20212;-68
2023/04/21 07:49:34;;;;;;;26.13;18.43;;;13.20;99.50;;;;;;21086273;28;20238;-68
2023/04/21 07:59:36;;;;;;;25.30;17.30;;;13.70;99.00;;;;;;21084701;28;20262;-70
2023/04/21 08:09:37;;;;;;;26.50;18.33;;;13.70;99.20;;;;;;21038292;28;20268;-71
2023/04/21 08:19:39;;;;;;;23.70;17.00;;;14.00;97.20;;;;;;21072039;28;20264;-76
2023/04/21 08:29:41;;;;;;;21.83;16.23;;;13.90;97.00;;;;;;20999038;28;20240;-75
2023/04/21 08:39:42;;;;;;;20.43;15.93;;;14.10;96.70;;;;;;21039498;28;20260;-73
2023/04/21 08:50:00;;;;;;;22.73;15.77;;;14.40;96.30;;;;;;21082075;28;20612;-72
2023/04/21 09:00:03;;;;;;;25.60;15.53;;;14.60;95.80;;;;;;21078477;28;20298;-73
2023/04/21 09:10:08;;;;;;;21.57;15.33;;;14.90;95.30;;;;;;21073584;28;20635;-71
2023/04/21 09:20:16;;;;;;;22.77;15.07;;;15.10;94.50;;;;;;20992770;28;20241;-71
2023/04/21 09:30:19;;;;;;;19.00;14.10;;;15.20;94.80;;;;;;20992886;28;20239;-71
2023/04/21 09:40:20;;;;;;;22.73;14.80;;;15.50;93.40;;;;;;20989996;28;20222;-71
2023/04/21 09:50:23;;;;;;;18.13;13.93;;;15.40;93.10;;;;;;20988131;28;20238;-70
2023/04/21 10:00:46;;;;;;;15.20;12.43;;;15.80;92.80;;;;;;20989671;28;20246;-69
2023/04/21 10:10:49;;;;;;;17.13;12.83;;;16.20;92.50;;;;;;20987156;28;20233;-71
2023/04/21 10:21:03;;;;;;;15.17;12.20;;;16.50;91.40;;;;;;21005443;28;20215;-71
2023/04/21 10:31:43;;;;;;;16.03;10.63;;;16.70;90.80;;;;;;21003347;28;20320;-69
2023/04/21 10:41:45;;;;;;;14.77;11.20;;;16.90;90.90;;;;;;20987544;28;20205;-70
2023/04/21 10:51:59;;;;;;;14.10;11.20;;;16.70;88.90;;;;;;21001736;28;20289;-70
2023/04/21 11:02:03;;;;;;;13.90;11.00;;;16.80;87.10;;;;;;21005963;28;20619;-71
2023/04/21 11:12:19;;;;;;;16.67;11.80;;;16.80;87.20;;;;;;21004722;28;20271;-71
2023/04/21 11:22:22;;;;;;;13.90;10.77;;;17.00;87.20;;;;;;21023247;28;20210;-71
2023/04/21 11:32:24;;;;;;;14.30;11.00;;;17.30;86.10;;;;;;21047447;28;20294;-71
2023/04/21 11:42:26;;;;;;;15.73;11.70;;;17.40;85.40;;;;;;21041904;28;21070;-71
2023/04/21 11:52:31;;;;;;;17.20;11.70;;;17.60;85.80;;;;;;21039366;28;20300;-71
2023/04/21 12:02:34;;;;;;;14.47;9.77;;;17.90;83.20;;;;;;21046721;28;20719;-72
2023/04/21 12:12:40;;;;;;;12.17;9.17;;;18.00;83.60;;;;;;21014345;28;20262;-73
2023/04/21 12:22:42;;;;;;;10.50;8.63;;;18.40;82.60;;;;;;20995673;28;20212;-72
2023/04/21 12:32:46;;;;;;;9.13;7.43;;;19.20;75.90;;;;;;20995739;28;20241;-73
2023/04/21 12:42:48;;;;;;;11.27;6.70;;;19.50;73.80;;;;;;20992035;28;20318;-74
2023/04/21 12:52:53;;;;;;;11.13;6.83;;;19.70;72.80;;;;;;20992639;28;20331;-71
2023/04/21 13:02:55;;;;;;;9.53;6.27;;;19.80;72.50;;;;;;20993476;28;20210;-67
2023/04/21 13:12:57;;;;;;;7.07;5.07;;;20.10;72.40;;;;;;20994374;28;20237;-69
2023/04/21 13:22:59;;;;;;;7.17;4.60;;;20.30;68.20;;;;;;20994013;28;20265;-68
2023/04/21 13:33:01;;;;;;;6.80;4.67;;;20.40;65.60;;;;;;20991897;28;20232;-71
2023/04/21 13:43:04;;;;;;;7.60;4.80;;;20.80;63.70;;;;;;20987792;28;20230;-71
2023/04/21 13:53:06;;;;;;;5.60;3.97;;;21.60;61.80;;;;;;20990039;28;20245;-70
2023/04/21 14:03:08;;;;;;;5.78;4.63;;;25.10;56.60;;;;;;20989283;28;20680;-72
2023/04/21 14:13:10;;;;;;;8.43;4.00;;;;;;;;;;20996430;28;20724;-69
2023/04/21 14:23:27;;;;;;;6.93;3.50;;;30.20;43.20;;;;;;21010254;28;20269;-70
2023/04/21 14:33:29;;;;;;;6.20;4.95;;;31.60;39.00;;;;;;20997186;28;20331;-72
2023/04/21 14:43:31;;;;;;;5.25;3.92;;;33.30;37.80;;;;;;20998856;28;20204;-70
2023/04/21 14:53:33;;;;;;;3.22;2.92;;;38.20;30.60;;;;;;21005943;28;20249;-72
2023/04/21 15:03:36;;;;;;;3.30;2.58;;;37.90;30.10;;;;;;21006989;28;20208;-71
2023/04/21 15:13:38;;;;;;;3.72;2.80;;;37.00;29.50;;;;;;21003937;28;20234;-72
2023/04/21 15:23:39;;;;;;;3.65;2.90;;;31.20;32.60;;;;;;21001195;28;20295;-72
2023/04/21 15:33:41;;;;;;;4.70;2.80;;;28.70;35.00;;;;;;20999732;28;20242;-72
2023/04/21 15:43:43;;;;;;;4.60;2.63;;;28.40;34.80;;;;;;20997372;28;20295;-74
2023/04/21 15:53:48;;;;;;;2.58;2.22;;;30.00;34.20;;;;;;20995462;28;20739;-72
2023/04/21 16:03:50;;;;;;;3.17;2.38;;;31.80;32.30;;;;;;20992240;28;20265;-72
2023/04/21 16:13:53;;;;;;;6.35;3.40;;;29.90;33.90;;;;;;20995741;28;20226;-72
2023/04/21 16:23:55;;;;;;;4.72;2.55;;;30.00;34.30;;;;;;20997309;28;20209;-70
2023/04/21 16:33:58;;;;;;;3.67;2.35;;;29.40;34.60;;;;;;20994621;28;20646;-68
2023/04/21 16:44:00;;;;;;;5.10;2.50;;;28.90;34.30;;;;;;20993041;28;20638;-69
2023/04/21 16:54:02;;;;;;;4.40;1.90;;;28.80;35.60;;;;;;20995404;28;20335;-69
2023/04/21 17:04:04;;;;;;;2.17;1.98;;;29.90;34.60;;;;;;21014331;28;20612;-69
2023/04/21 17:14:06;;;;;;;2.67;2.10;;;28.00;35.30;;;;;;21046132;28;20288;-67
2023/04/21 17:24:08;;;;;;;2.20;2.00;;;25.60;37.50;;;;;;21077871;28;20263;-69
2023/04/21 17:34:10;;;;;;;5.70;2.10;;;24.10;39.20;;;;;;21078840;28;20291;-69
2023/04/21 17:44:11;;;;;;;2.23;1.93;;;23.00;40.50;;;;;;21078475;28;20202;-70
2023/04/21 17:54:13;;;;;;;3.07;2.10;;;22.10;41.90;;;;;;21078541;28;20238;-72
2023/04/21 18:04:15;;;;;;;3.33;2.37;;;21.30;42.90;;;;;;21078298;28;20275;-72
2023/04/21 18:14:18;;;;;;;4.03;2.30;;;20.70;44.00;;;;;;21076806;28;20234;-72
2023/04/21 18:24:19;;;;;;;4.70;2.77;;;20.20;45.30;;;;;;21077710;28;20252;-71
2023/04/21 18:34:21;;;;;;;5.23;3.17;;;19.80;46.30;;;;;;21074817;28;20578;-73
2023/04/21 18:44:23;;;;;;;5.57;3.87;;;19.00;48.20;;;;;;21074178;28;20206;-65
2023/04/21 18:54:26;;;;;;;4.13;3.57;;;18.80;49.30;;;;;;21074062;28;20291;-68
2023/04/21 19:04:29;;;;;;;4.13;3.27;;;18.10;51.00;;;;;;21084408;28;20208;-68
2023/04/21 19:14:31;;;;;;;3.73;3.07;;;18.10;51.80;;;;;;21086863;28;20238;-68
2023/04/21 19:24:46;;;;;;;4.60;3.43;;;17.80;53.60;;;;;;21087355;28;20200;-67
2023/04/21 19:34:48;;;;;;;5.67;3.97;;;17.40;54.40;;;;;;21086632;28;20238;-66
2023/04/21 19:44:49;;;;;;;7.97;6.00;;;16.80;56.00;;;;;;21058054;28;20211;-65
2023/04/21 19:54:51;;;;;;;5.30;4.33;;;16.80;56.60;;;;;;21063272;28;20238;-66
2023/04/21 20:04:53;;;;;;;7.03;4.07;;;16.60;57.20;;;;;;21009208;28;20195;-68
2023/04/21 20:14:55;;;;;;;6.20;4.40;;;16.40;58.10;;;;;;21164452;28;20225;-67
2023/04/21 20:24:57;;;;;;;10.97;4.67;;;16.10;59.10;;;;;;21168466;28;20251;-68
2023/04/21 20:34:58;;;;;;;12.33;5.13;;;15.90;60.40;;;;;;21168422;28;20241;-68
2023/04/21 20:45:01;;;;;;;10.27;5.20;;;15.60;62.30;;;;;;21167547;28;20270;-67
2023/04/21 20:55:02;;;;;;;14.00;5.30;;;15.20;65.90;;;;;;21167059;28;20302;-67
2023/04/21 21:05:05;;;;;;;6.90;5.10;;;15.20;67.20;;;;;;21166259;28;20206;-68
2023/04/21 21:15:07;;;;;;;6.60;5.00;;;15.10;68.50;;;;;;21165597;27;20232;-68
2023/04/21 21:25:09;;;;;;;9.47;5.13;;;15.10;69.10;;;;;;21165033;28;20202;-65
2023/04/21 21:35:11;;;;;;;6.83;4.70;;;15.00;69.90;;;;;;21164417;28;20590;-66
2023/04/21 21:45:12;;;;;;;8.50;4.83;;;14.80;72.00;;;;;;21163946;28;20206;-66
2023/04/21 21:55:14;;;;;;;6.20;5.10;;;14.70;73.30;;;;;;21162007;28;20635;-66
2023/04/21 22:05:16;;;;;;;7.73;5.10;;;14.50;75.10;;;;;;21162764;28;20258;-66
2023/04/21 22:15:18;;;;;;;9.97;4.77;;;14.00;77.40;;;;;;21162093;28;20594;-65
2023/04/21 22:25:25;;;;;;;11.53;5.30;;;14.00;78.10;;;;;;21162230;28;20217;-68
2023/04/21 22:35:28;;;;;;;10.30;4.80;;;13.80;80.30;;;;;;21166146;28;20227;-67
2023/04/21 22:45:30;;;;;;;11.77;4.57;;;13.80;81.30;;;;;;21177411;28;20259;-67
2023/04/21 22:55:31;;;;;;;6.13;4.43;;;13.50;83.80;;;;;;21176590;28;20317;-67
2023/04/21 23:05:33;;;;;;;7.93;4.60;;;13.40;84.30;;;;;;21175755;28;20204;-67
2023/04/21 23:15:35;;;;;;;10.40;5.23;;;13.50;85.40;;;;;;21175073;28;20230;-66
2023/04/21 23:25:37;;;;;;;6.83;4.80;;;13.50;86.10;;;;;;21174929;28;20283;-66
2023/04/21 23:35:38;;;;;;;9.47;4.93;;;13.50;86.90;;;;;;21173593;28;20238;-66
2023/04/21 23:45:40;;;;;;;6.40;5.00;;;13.50;87.80;;;;;;21172312;28;20210;-66
2023/04/21 23:55:42;;;;;;;9.00;4.77;;;13.50;88.40;;;;;;21171861;28;20280;-67
